<?xml version="1.0" encoding="UTF-8" standalone="no" ?>
<gpx xmlns="http://www.topografix.com/GPX/1/1" xmlns:xsi="http://www.w3.org/2001/XMLSchema-instance" xsi:schemaLocation="http://www.topografix.com/GPX/1/1 http://www.topografix.com/GPX/1/1/gpx.xsd" version="1.1" creator="VisuGPX - https://www.visugpx.com">
  <metadata>
    <name>BRC bol d’air Sucy -Noiseau </name>
    <desc><![CDATA[Rando facile essentiellement dans des parc et en forêt . 
Attention : un passage doit être très boueux en hiver au km 7 - 8

Effectuée avec Bernard le 26 mai 2026]]></desc>
  </metadata>
  <wpt lat="48.74902" lon="2.53876">
    <ele>99</ele>
    <name><![CDATA[Point de passage 1]]></name>
    <type><![CDATA[GENERIC]]></type>
  </wpt>
  <wpt lat="48.74895" lon="2.53884">
    <ele>99</ele>
    <name><![CDATA[Point de passage 2]]></name>
    <type><![CDATA[GENERIC]]></type>
  </wpt>
  <trk>
    <name><![CDATA[Randonnée du 26/05/2026 à 09:29]]></name>
    <trkseg>
      <trkpt lat="48.74902" lon="2.53876">
        <ele>99</ele>
        <time>2026-05-26T07:29:08.000Z</time>
      </trkpt>
      <trkpt lat="48.7491" lon="2.53908">
        <ele>100</ele>
        <time>2026-05-26T07:30:20.000Z</time>
      </trkpt>
      <trkpt lat="48.7491" lon="2.53942">
        <ele>100</ele>
        <time>2026-05-26T07:30:44.000Z</time>
      </trkpt>
      <trkpt lat="48.74907" lon="2.53976">
        <ele>99</ele>
        <time>2026-05-26T07:31:08.000Z</time>
      </trkpt>
      <trkpt lat="48.74927" lon="2.53995">
        <ele>99</ele>
        <time>2026-05-26T07:31:30.000Z</time>
      </trkpt>
      <trkpt lat="48.74948" lon="2.54009">
        <ele>99</ele>
        <time>2026-05-26T07:31:50.000Z</time>
      </trkpt>
      <trkpt lat="48.7497" lon="2.54025">
        <ele>99</ele>
        <time>2026-05-26T07:32:11.000Z</time>
      </trkpt>
      <trkpt lat="48.74976" lon="2.54059">
        <ele>99</ele>
        <time>2026-05-26T07:32:34.000Z</time>
      </trkpt>
      <trkpt lat="48.74978" lon="2.54025">
        <ele>100</ele>
        <time>2026-05-26T07:32:57.000Z</time>
      </trkpt>
      <trkpt lat="48.74986" lon="2.53992">
        <ele>99</ele>
        <time>2026-05-26T07:33:18.000Z</time>
      </trkpt>
      <trkpt lat="48.74992" lon="2.53958">
        <ele>100</ele>
        <time>2026-05-26T07:33:37.000Z</time>
      </trkpt>
      <trkpt lat="48.75013" lon="2.53946">
        <ele>101</ele>
        <time>2026-05-26T07:34:01.000Z</time>
      </trkpt>
      <trkpt lat="48.75037" lon="2.53943">
        <ele>102</ele>
        <time>2026-05-26T07:34:21.000Z</time>
      </trkpt>
      <trkpt lat="48.75061" lon="2.53943">
        <ele>101</ele>
        <time>2026-05-26T07:34:42.000Z</time>
      </trkpt>
      <trkpt lat="48.75085" lon="2.53941">
        <ele>102</ele>
        <time>2026-05-26T07:35:02.000Z</time>
      </trkpt>
      <trkpt lat="48.75107" lon="2.53939">
        <ele>101</ele>
        <time>2026-05-26T07:35:21.000Z</time>
      </trkpt>
      <trkpt lat="48.7513" lon="2.53938">
        <ele>100</ele>
        <time>2026-05-26T07:35:40.000Z</time>
      </trkpt>
      <trkpt lat="48.75152" lon="2.53935">
        <ele>100</ele>
        <time>2026-05-26T07:35:59.000Z</time>
      </trkpt>
      <trkpt lat="48.75175" lon="2.53933">
        <ele>100</ele>
        <time>2026-05-26T07:36:19.000Z</time>
      </trkpt>
      <trkpt lat="48.75198" lon="2.53932">
        <ele>100</ele>
        <time>2026-05-26T07:36:36.000Z</time>
      </trkpt>
      <trkpt lat="48.75221" lon="2.5393">
        <ele>100</ele>
        <time>2026-05-26T07:36:55.000Z</time>
      </trkpt>
      <trkpt lat="48.75244" lon="2.53927">
        <ele>100</ele>
        <time>2026-05-26T07:37:16.000Z</time>
      </trkpt>
      <trkpt lat="48.75267" lon="2.53923">
        <ele>101</ele>
        <time>2026-05-26T07:37:35.000Z</time>
      </trkpt>
      <trkpt lat="48.7529" lon="2.53924">
        <ele>101</ele>
        <time>2026-05-26T07:37:55.000Z</time>
      </trkpt>
      <trkpt lat="48.75307" lon="2.53947">
        <ele>100</ele>
        <time>2026-05-26T07:38:19.000Z</time>
      </trkpt>
      <trkpt lat="48.75312" lon="2.53981">
        <ele>100</ele>
        <time>2026-05-26T07:38:39.000Z</time>
      </trkpt>
      <trkpt lat="48.75313" lon="2.54016">
        <ele>99</ele>
        <time>2026-05-26T07:39:00.000Z</time>
      </trkpt>
      <trkpt lat="48.75314" lon="2.54051">
        <ele>99</ele>
        <time>2026-05-26T07:39:19.000Z</time>
      </trkpt>
      <trkpt lat="48.75315" lon="2.54086">
        <ele>99</ele>
        <time>2026-05-26T07:39:38.000Z</time>
      </trkpt>
      <trkpt lat="48.75318" lon="2.54121">
        <ele>99</ele>
        <time>2026-05-26T07:39:57.000Z</time>
      </trkpt>
      <trkpt lat="48.75317" lon="2.54155">
        <ele>100</ele>
        <time>2026-05-26T07:40:16.000Z</time>
      </trkpt>
      <trkpt lat="48.75319" lon="2.54191">
        <ele>100</ele>
        <time>2026-05-26T07:40:36.000Z</time>
      </trkpt>
      <trkpt lat="48.75318" lon="2.54226">
        <ele>100</ele>
        <time>2026-05-26T07:40:56.000Z</time>
      </trkpt>
      <trkpt lat="48.75321" lon="2.54261">
        <ele>100</ele>
        <time>2026-05-26T07:41:14.000Z</time>
      </trkpt>
      <trkpt lat="48.75323" lon="2.54296">
        <ele>101</ele>
        <time>2026-05-26T07:41:33.000Z</time>
      </trkpt>
      <trkpt lat="48.75338" lon="2.54321">
        <ele>99</ele>
        <time>2026-05-26T07:41:59.000Z</time>
      </trkpt>
      <trkpt lat="48.75355" lon="2.54344">
        <ele>100</ele>
        <time>2026-05-26T07:42:21.000Z</time>
      </trkpt>
      <trkpt lat="48.75371" lon="2.54369">
        <ele>100</ele>
        <time>2026-05-26T07:42:43.000Z</time>
      </trkpt>
      <trkpt lat="48.75382" lon="2.54399">
        <ele>100</ele>
        <time>2026-05-26T07:43:05.000Z</time>
      </trkpt>
      <trkpt lat="48.75395" lon="2.54427">
        <ele>99</ele>
        <time>2026-05-26T07:43:33.000Z</time>
      </trkpt>
      <trkpt lat="48.75417" lon="2.54437">
        <ele>99</ele>
        <time>2026-05-26T07:43:58.000Z</time>
      </trkpt>
      <trkpt lat="48.75427" lon="2.54467">
        <ele>99</ele>
        <time>2026-05-26T07:44:23.000Z</time>
      </trkpt>
      <trkpt lat="48.75439" lon="2.54497">
        <ele>100</ele>
        <time>2026-05-26T07:44:44.000Z</time>
      </trkpt>
      <trkpt lat="48.7545" lon="2.54528">
        <ele>99</ele>
        <time>2026-05-26T07:45:09.000Z</time>
      </trkpt>
      <trkpt lat="48.75473" lon="2.54533">
        <ele>100</ele>
        <time>2026-05-26T07:45:31.000Z</time>
      </trkpt>
      <trkpt lat="48.75493" lon="2.54548">
        <ele>100</ele>
        <time>2026-05-26T07:45:51.000Z</time>
      </trkpt>
      <trkpt lat="48.75513" lon="2.54564">
        <ele>101</ele>
        <time>2026-05-26T07:46:11.000Z</time>
      </trkpt>
      <trkpt lat="48.75535" lon="2.54558">
        <ele>99</ele>
        <time>2026-05-26T07:46:43.000Z</time>
      </trkpt>
      <trkpt lat="48.75554" lon="2.54537">
        <ele>100</ele>
        <time>2026-05-26T07:47:04.000Z</time>
      </trkpt>
      <trkpt lat="48.7557" lon="2.54513">
        <ele>99</ele>
        <time>2026-05-26T07:47:25.000Z</time>
      </trkpt>
      <trkpt lat="48.75587" lon="2.54489">
        <ele>100</ele>
        <time>2026-05-26T07:47:45.000Z</time>
      </trkpt>
      <trkpt lat="48.75603" lon="2.54466">
        <ele>100</ele>
        <time>2026-05-26T07:48:04.000Z</time>
      </trkpt>
      <trkpt lat="48.75617" lon="2.54438">
        <ele>100</ele>
        <time>2026-05-26T07:48:24.000Z</time>
      </trkpt>
      <trkpt lat="48.75637" lon="2.5442">
        <ele>100</ele>
        <time>2026-05-26T07:48:47.000Z</time>
      </trkpt>
      <trkpt lat="48.7565" lon="2.54391">
        <ele>100</ele>
        <time>2026-05-26T07:49:08.000Z</time>
      </trkpt>
      <trkpt lat="48.75665" lon="2.54365">
        <ele>100</ele>
        <time>2026-05-26T07:49:28.000Z</time>
      </trkpt>
      <trkpt lat="48.75678" lon="2.54336">
        <ele>100</ele>
        <time>2026-05-26T07:49:48.000Z</time>
      </trkpt>
      <trkpt lat="48.75692" lon="2.54308">
        <ele>100</ele>
        <time>2026-05-26T07:50:10.000Z</time>
      </trkpt>
      <trkpt lat="48.75705" lon="2.54279">
        <ele>99</ele>
        <time>2026-05-26T07:50:32.000Z</time>
      </trkpt>
      <trkpt lat="48.7572" lon="2.54251">
        <ele>100</ele>
        <time>2026-05-26T07:50:53.000Z</time>
      </trkpt>
      <trkpt lat="48.75734" lon="2.54223">
        <ele>100</ele>
        <time>2026-05-26T07:51:13.000Z</time>
      </trkpt>
      <trkpt lat="48.7575" lon="2.54197">
        <ele>100</ele>
        <time>2026-05-26T07:51:34.000Z</time>
      </trkpt>
      <trkpt lat="48.75763" lon="2.54168">
        <ele>100</ele>
        <time>2026-05-26T07:51:55.000Z</time>
      </trkpt>
      <trkpt lat="48.75778" lon="2.54142">
        <ele>100</ele>
        <time>2026-05-26T07:52:15.000Z</time>
      </trkpt>
      <trkpt lat="48.75793" lon="2.54115">
        <ele>100</ele>
        <time>2026-05-26T07:52:36.000Z</time>
      </trkpt>
      <trkpt lat="48.75807" lon="2.54086">
        <ele>101</ele>
        <time>2026-05-26T07:53:01.000Z</time>
      </trkpt>
      <trkpt lat="48.75823" lon="2.54112">
        <ele>100</ele>
        <time>2026-05-26T07:53:34.000Z</time>
      </trkpt>
      <trkpt lat="48.75832" lon="2.54144">
        <ele>101</ele>
        <time>2026-05-26T07:53:55.000Z</time>
      </trkpt>
      <trkpt lat="48.75844" lon="2.54175">
        <ele>100</ele>
        <time>2026-05-26T07:54:16.000Z</time>
      </trkpt>
      <trkpt lat="48.75856" lon="2.54203">
        <ele>100</ele>
        <time>2026-05-26T07:54:36.000Z</time>
      </trkpt>
      <trkpt lat="48.75867" lon="2.54235">
        <ele>100</ele>
        <time>2026-05-26T07:54:57.000Z</time>
      </trkpt>
      <trkpt lat="48.75879" lon="2.54266">
        <ele>100</ele>
        <time>2026-05-26T07:55:18.000Z</time>
      </trkpt>
      <trkpt lat="48.75892" lon="2.54295">
        <ele>99</ele>
        <time>2026-05-26T07:55:41.000Z</time>
      </trkpt>
      <trkpt lat="48.75906" lon="2.54321">
        <ele>99</ele>
        <time>2026-05-26T07:56:04.000Z</time>
      </trkpt>
      <trkpt lat="48.75915" lon="2.54354">
        <ele>100</ele>
        <time>2026-05-26T07:56:25.000Z</time>
      </trkpt>
      <trkpt lat="48.75928" lon="2.54383">
        <ele>99</ele>
        <time>2026-05-26T07:56:46.000Z</time>
      </trkpt>
      <trkpt lat="48.75942" lon="2.54411">
        <ele>100</ele>
        <time>2026-05-26T07:57:07.000Z</time>
      </trkpt>
      <trkpt lat="48.75955" lon="2.54438">
        <ele>100</ele>
        <time>2026-05-26T07:57:26.000Z</time>
      </trkpt>
      <trkpt lat="48.75968" lon="2.54467">
        <ele>99</ele>
        <time>2026-05-26T07:57:48.000Z</time>
      </trkpt>
      <trkpt lat="48.75983" lon="2.54493">
        <ele>100</ele>
        <time>2026-05-26T07:58:11.000Z</time>
      </trkpt>
      <trkpt lat="48.76006" lon="2.54488">
        <ele>100</ele>
        <time>2026-05-26T07:58:31.000Z</time>
      </trkpt>
      <trkpt lat="48.76028" lon="2.5448">
        <ele>100</ele>
        <time>2026-05-26T07:58:53.000Z</time>
      </trkpt>
      <trkpt lat="48.76051" lon="2.54473">
        <ele>100</ele>
        <time>2026-05-26T07:59:14.000Z</time>
      </trkpt>
      <trkpt lat="48.76074" lon="2.54468">
        <ele>100</ele>
        <time>2026-05-26T07:59:34.000Z</time>
      </trkpt>
      <trkpt lat="48.76096" lon="2.5446">
        <ele>101</ele>
        <time>2026-05-26T07:59:55.000Z</time>
      </trkpt>
      <trkpt lat="48.76119" lon="2.54452">
        <ele>101</ele>
        <time>2026-05-26T08:00:15.000Z</time>
      </trkpt>
      <trkpt lat="48.76141" lon="2.54447">
        <ele>100</ele>
        <time>2026-05-26T08:00:34.000Z</time>
      </trkpt>
      <trkpt lat="48.76147" lon="2.54413">
        <ele>99</ele>
        <time>2026-05-26T08:00:55.000Z</time>
      </trkpt>
      <trkpt lat="48.76155" lon="2.54381">
        <ele>98</ele>
        <time>2026-05-26T08:01:15.000Z</time>
      </trkpt>
      <trkpt lat="48.7616" lon="2.54346">
        <ele>99</ele>
        <time>2026-05-26T08:01:36.000Z</time>
      </trkpt>
      <trkpt lat="48.76164" lon="2.54312">
        <ele>98</ele>
        <time>2026-05-26T08:01:57.000Z</time>
      </trkpt>
      <trkpt lat="48.76167" lon="2.54278">
        <ele>99</ele>
        <time>2026-05-26T08:02:18.000Z</time>
      </trkpt>
      <trkpt lat="48.76177" lon="2.54246">
        <ele>99</ele>
        <time>2026-05-26T08:02:37.000Z</time>
      </trkpt>
      <trkpt lat="48.76182" lon="2.54212">
        <ele>98</ele>
        <time>2026-05-26T08:02:58.000Z</time>
      </trkpt>
      <trkpt lat="48.76183" lon="2.54176">
        <ele>98</ele>
        <time>2026-05-26T08:03:19.000Z</time>
      </trkpt>
      <trkpt lat="48.76189" lon="2.54143">
        <ele>98</ele>
        <time>2026-05-26T08:03:39.000Z</time>
      </trkpt>
      <trkpt lat="48.76195" lon="2.54109">
        <ele>98</ele>
        <time>2026-05-26T08:03:59.000Z</time>
      </trkpt>
      <trkpt lat="48.76201" lon="2.54077">
        <ele>98</ele>
        <time>2026-05-26T08:04:20.000Z</time>
      </trkpt>
      <trkpt lat="48.762" lon="2.54041">
        <ele>98</ele>
        <time>2026-05-26T08:04:42.000Z</time>
      </trkpt>
      <trkpt lat="48.7619" lon="2.5401">
        <ele>98</ele>
        <time>2026-05-26T08:05:05.000Z</time>
      </trkpt>
      <trkpt lat="48.76174" lon="2.53985">
        <ele>98</ele>
        <time>2026-05-26T08:05:27.000Z</time>
      </trkpt>
      <trkpt lat="48.76185" lon="2.53955">
        <ele>97</ele>
        <time>2026-05-26T08:07:56.000Z</time>
      </trkpt>
      <trkpt lat="48.76165" lon="2.53971">
        <ele>97</ele>
        <time>2026-05-26T08:08:53.000Z</time>
      </trkpt>
      <trkpt lat="48.76142" lon="2.53975">
        <ele>98</ele>
        <time>2026-05-26T08:14:25.000Z</time>
      </trkpt>
      <trkpt lat="48.7612" lon="2.53964">
        <ele>99</ele>
        <time>2026-05-26T08:14:54.000Z</time>
      </trkpt>
      <trkpt lat="48.76096" lon="2.53966">
        <ele>97</ele>
        <time>2026-05-26T08:15:13.000Z</time>
      </trkpt>
      <trkpt lat="48.76076" lon="2.53979">
        <ele>98</ele>
        <time>2026-05-26T08:15:32.000Z</time>
      </trkpt>
      <trkpt lat="48.76056" lon="2.53996">
        <ele>97</ele>
        <time>2026-05-26T08:15:52.000Z</time>
      </trkpt>
      <trkpt lat="48.76034" lon="2.54006">
        <ele>98</ele>
        <time>2026-05-26T08:16:12.000Z</time>
      </trkpt>
      <trkpt lat="48.76011" lon="2.54003">
        <ele>99</ele>
        <time>2026-05-26T08:16:32.000Z</time>
      </trkpt>
      <trkpt lat="48.75994" lon="2.53979">
        <ele>99</ele>
        <time>2026-05-26T08:16:54.000Z</time>
      </trkpt>
      <trkpt lat="48.75976" lon="2.53958">
        <ele>99</ele>
        <time>2026-05-26T08:17:14.000Z</time>
      </trkpt>
      <trkpt lat="48.75958" lon="2.53935">
        <ele>98</ele>
        <time>2026-05-26T08:17:35.000Z</time>
      </trkpt>
      <trkpt lat="48.75943" lon="2.53907">
        <ele>99</ele>
        <time>2026-05-26T08:17:58.000Z</time>
      </trkpt>
      <trkpt lat="48.75927" lon="2.53882">
        <ele>99</ele>
        <time>2026-05-26T08:18:16.000Z</time>
      </trkpt>
      <trkpt lat="48.75932" lon="2.53848">
        <ele>99</ele>
        <time>2026-05-26T08:18:38.000Z</time>
      </trkpt>
      <trkpt lat="48.75947" lon="2.53822">
        <ele>99</ele>
        <time>2026-05-26T08:18:56.000Z</time>
      </trkpt>
      <trkpt lat="48.7596" lon="2.53793">
        <ele>99</ele>
        <time>2026-05-26T08:19:17.000Z</time>
      </trkpt>
      <trkpt lat="48.75971" lon="2.53764">
        <ele>99</ele>
        <time>2026-05-26T08:19:37.000Z</time>
      </trkpt>
      <trkpt lat="48.75983" lon="2.53734">
        <ele>100</ele>
        <time>2026-05-26T08:19:57.000Z</time>
      </trkpt>
      <trkpt lat="48.75997" lon="2.53702">
        <ele>99</ele>
        <time>2026-05-26T08:20:20.000Z</time>
      </trkpt>
      <trkpt lat="48.76009" lon="2.53672">
        <ele>99</ele>
        <time>2026-05-26T08:20:42.000Z</time>
      </trkpt>
      <trkpt lat="48.76023" lon="2.53644">
        <ele>99</ele>
        <time>2026-05-26T08:21:04.000Z</time>
      </trkpt>
      <trkpt lat="48.76039" lon="2.5362">
        <ele>100</ele>
        <time>2026-05-26T08:21:23.000Z</time>
      </trkpt>
      <trkpt lat="48.7605" lon="2.53588">
        <ele>99</ele>
        <time>2026-05-26T08:21:43.000Z</time>
      </trkpt>
      <trkpt lat="48.76058" lon="2.53554">
        <ele>99</ele>
        <time>2026-05-26T08:22:04.000Z</time>
      </trkpt>
      <trkpt lat="48.76072" lon="2.53527">
        <ele>99</ele>
        <time>2026-05-26T08:22:23.000Z</time>
      </trkpt>
      <trkpt lat="48.76084" lon="2.53497">
        <ele>100</ele>
        <time>2026-05-26T08:22:43.000Z</time>
      </trkpt>
      <trkpt lat="48.76093" lon="2.53466">
        <ele>100</ele>
        <time>2026-05-26T08:23:08.000Z</time>
      </trkpt>
      <trkpt lat="48.76109" lon="2.5344">
        <ele>100</ele>
        <time>2026-05-26T08:23:29.000Z</time>
      </trkpt>
      <trkpt lat="48.76122" lon="2.5341">
        <ele>100</ele>
        <time>2026-05-26T08:23:50.000Z</time>
      </trkpt>
      <trkpt lat="48.76142" lon="2.53392">
        <ele>99</ele>
        <time>2026-05-26T08:24:18.000Z</time>
      </trkpt>
      <trkpt lat="48.76165" lon="2.53398">
        <ele>99</ele>
        <time>2026-05-26T08:24:42.000Z</time>
      </trkpt>
      <trkpt lat="48.76186" lon="2.53411">
        <ele>99</ele>
        <time>2026-05-26T08:25:06.000Z</time>
      </trkpt>
      <trkpt lat="48.76206" lon="2.53429">
        <ele>99</ele>
        <time>2026-05-26T08:25:30.000Z</time>
      </trkpt>
      <trkpt lat="48.76222" lon="2.53453">
        <ele>98</ele>
        <time>2026-05-26T08:25:53.000Z</time>
      </trkpt>
      <trkpt lat="48.76239" lon="2.53477">
        <ele>99</ele>
        <time>2026-05-26T08:26:17.000Z</time>
      </trkpt>
      <trkpt lat="48.76257" lon="2.535">
        <ele>99</ele>
        <time>2026-05-26T08:26:39.000Z</time>
      </trkpt>
      <trkpt lat="48.76274" lon="2.53523">
        <ele>98</ele>
        <time>2026-05-26T08:27:00.000Z</time>
      </trkpt>
      <trkpt lat="48.76291" lon="2.53548">
        <ele>98</ele>
        <time>2026-05-26T08:27:21.000Z</time>
      </trkpt>
      <trkpt lat="48.76307" lon="2.53572">
        <ele>98</ele>
        <time>2026-05-26T08:27:44.000Z</time>
      </trkpt>
      <trkpt lat="48.76325" lon="2.53596">
        <ele>97</ele>
        <time>2026-05-26T08:28:06.000Z</time>
      </trkpt>
      <trkpt lat="48.76347" lon="2.53604">
        <ele>98</ele>
        <time>2026-05-26T08:28:39.000Z</time>
      </trkpt>
      <trkpt lat="48.76369" lon="2.53616">
        <ele>97</ele>
        <time>2026-05-26T08:29:02.000Z</time>
      </trkpt>
      <trkpt lat="48.76393" lon="2.53611">
        <ele>97</ele>
        <time>2026-05-26T08:29:30.000Z</time>
      </trkpt>
      <trkpt lat="48.76415" lon="2.53619">
        <ele>97</ele>
        <time>2026-05-26T08:29:50.000Z</time>
      </trkpt>
      <trkpt lat="48.76438" lon="2.53624">
        <ele>96</ele>
        <time>2026-05-26T08:30:13.000Z</time>
      </trkpt>
      <trkpt lat="48.7646" lon="2.53633">
        <ele>96</ele>
        <time>2026-05-26T08:30:34.000Z</time>
      </trkpt>
      <trkpt lat="48.76482" lon="2.53645">
        <ele>96</ele>
        <time>2026-05-26T08:30:56.000Z</time>
      </trkpt>
      <trkpt lat="48.76503" lon="2.53658">
        <ele>96</ele>
        <time>2026-05-26T08:31:17.000Z</time>
      </trkpt>
      <trkpt lat="48.76525" lon="2.53673">
        <ele>95</ele>
        <time>2026-05-26T08:31:40.000Z</time>
      </trkpt>
      <trkpt lat="48.76543" lon="2.53692">
        <ele>95</ele>
        <time>2026-05-26T08:32:02.000Z</time>
      </trkpt>
      <trkpt lat="48.76565" lon="2.53707">
        <ele>94</ele>
        <time>2026-05-26T08:32:24.000Z</time>
      </trkpt>
      <trkpt lat="48.76577" lon="2.53736">
        <ele>94</ele>
        <time>2026-05-26T08:32:47.000Z</time>
      </trkpt>
      <trkpt lat="48.76582" lon="2.5377">
        <ele>94</ele>
        <time>2026-05-26T08:33:11.000Z</time>
      </trkpt>
      <trkpt lat="48.76592" lon="2.53801">
        <ele>94</ele>
        <time>2026-05-26T08:33:36.000Z</time>
      </trkpt>
      <trkpt lat="48.766" lon="2.53833">
        <ele>93</ele>
        <time>2026-05-26T08:33:55.000Z</time>
      </trkpt>
      <trkpt lat="48.76605" lon="2.53867">
        <ele>91</ele>
        <time>2026-05-26T08:34:14.000Z</time>
      </trkpt>
      <trkpt lat="48.7662" lon="2.53892">
        <ele>91</ele>
        <time>2026-05-26T08:34:35.000Z</time>
      </trkpt>
      <trkpt lat="48.76628" lon="2.53925">
        <ele>92</ele>
        <time>2026-05-26T08:34:50.000Z</time>
      </trkpt>
      <trkpt lat="48.7665" lon="2.53941">
        <ele>92</ele>
        <time>2026-05-26T08:35:11.000Z</time>
      </trkpt>
      <trkpt lat="48.76672" lon="2.53949">
        <ele>90</ele>
        <time>2026-05-26T08:35:30.000Z</time>
      </trkpt>
      <trkpt lat="48.76694" lon="2.53939">
        <ele>89</ele>
        <time>2026-05-26T08:35:51.000Z</time>
      </trkpt>
      <trkpt lat="48.76717" lon="2.53937">
        <ele>90</ele>
        <time>2026-05-26T08:36:12.000Z</time>
      </trkpt>
      <trkpt lat="48.76739" lon="2.53946">
        <ele>88</ele>
        <time>2026-05-26T08:36:34.000Z</time>
      </trkpt>
      <trkpt lat="48.76763" lon="2.53945">
        <ele>89</ele>
        <time>2026-05-26T08:36:50.000Z</time>
      </trkpt>
      <trkpt lat="48.76786" lon="2.53941">
        <ele>85</ele>
        <time>2026-05-26T08:37:12.000Z</time>
      </trkpt>
      <trkpt lat="48.76809" lon="2.53956">
        <ele>87</ele>
        <time>2026-05-26T08:37:44.000Z</time>
      </trkpt>
      <trkpt lat="48.76831" lon="2.53972">
        <ele>87</ele>
        <time>2026-05-26T08:38:22.000Z</time>
      </trkpt>
      <trkpt lat="48.76853" lon="2.53985">
        <ele>85</ele>
        <time>2026-05-26T08:38:53.000Z</time>
      </trkpt>
      <trkpt lat="48.76876" lon="2.53984">
        <ele>86</ele>
        <time>2026-05-26T08:39:07.000Z</time>
      </trkpt>
      <trkpt lat="48.76899" lon="2.53987">
        <ele>87</ele>
        <time>2026-05-26T08:39:27.000Z</time>
      </trkpt>
      <trkpt lat="48.76921" lon="2.54001">
        <ele>87</ele>
        <time>2026-05-26T08:39:49.000Z</time>
      </trkpt>
      <trkpt lat="48.76942" lon="2.54012">
        <ele>84</ele>
        <time>2026-05-26T08:40:11.000Z</time>
      </trkpt>
      <trkpt lat="48.76963" lon="2.54026">
        <ele>83</ele>
        <time>2026-05-26T08:40:33.000Z</time>
      </trkpt>
      <trkpt lat="48.76986" lon="2.54029">
        <ele>83</ele>
        <time>2026-05-26T08:40:52.000Z</time>
      </trkpt>
      <trkpt lat="48.77009" lon="2.54022">
        <ele>82</ele>
        <time>2026-05-26T08:41:12.000Z</time>
      </trkpt>
      <trkpt lat="48.77031" lon="2.54015">
        <ele>81</ele>
        <time>2026-05-26T08:41:35.000Z</time>
      </trkpt>
      <trkpt lat="48.77053" lon="2.54005">
        <ele>80</ele>
        <time>2026-05-26T08:41:56.000Z</time>
      </trkpt>
      <trkpt lat="48.77076" lon="2.53992">
        <ele>79</ele>
        <time>2026-05-26T08:42:33.000Z</time>
      </trkpt>
      <trkpt lat="48.77095" lon="2.5397">
        <ele>79</ele>
        <time>2026-05-26T08:42:54.000Z</time>
      </trkpt>
      <trkpt lat="48.77116" lon="2.53951">
        <ele>78</ele>
        <time>2026-05-26T08:43:13.000Z</time>
      </trkpt>
      <trkpt lat="48.77134" lon="2.53929">
        <ele>78</ele>
        <time>2026-05-26T08:43:32.000Z</time>
      </trkpt>
      <trkpt lat="48.77153" lon="2.53911">
        <ele>77</ele>
        <time>2026-05-26T08:43:52.000Z</time>
      </trkpt>
      <trkpt lat="48.77173" lon="2.53892">
        <ele>75</ele>
        <time>2026-05-26T08:44:11.000Z</time>
      </trkpt>
      <trkpt lat="48.77192" lon="2.53874">
        <ele>74</ele>
        <time>2026-05-26T08:44:30.000Z</time>
      </trkpt>
      <trkpt lat="48.77208" lon="2.53849">
        <ele>73</ele>
        <time>2026-05-26T08:44:48.000Z</time>
      </trkpt>
      <trkpt lat="48.7722" lon="2.53819">
        <ele>74</ele>
        <time>2026-05-26T08:45:39.000Z</time>
      </trkpt>
      <trkpt lat="48.77233" lon="2.5379">
        <ele>73</ele>
        <time>2026-05-26T08:46:00.000Z</time>
      </trkpt>
      <trkpt lat="48.77248" lon="2.53764">
        <ele>73</ele>
        <time>2026-05-26T08:46:22.000Z</time>
      </trkpt>
      <trkpt lat="48.77259" lon="2.53734">
        <ele>73</ele>
        <time>2026-05-26T08:46:40.000Z</time>
      </trkpt>
      <trkpt lat="48.77272" lon="2.53705">
        <ele>73</ele>
        <time>2026-05-26T08:47:04.000Z</time>
      </trkpt>
      <trkpt lat="48.77288" lon="2.53679">
        <ele>72</ele>
        <time>2026-05-26T08:47:23.000Z</time>
      </trkpt>
      <trkpt lat="48.77303" lon="2.53654">
        <ele>72</ele>
        <time>2026-05-26T08:47:41.000Z</time>
      </trkpt>
      <trkpt lat="48.77318" lon="2.53679">
        <ele>71</ele>
        <time>2026-05-26T08:48:33.000Z</time>
      </trkpt>
      <trkpt lat="48.77326" lon="2.53713">
        <ele>71</ele>
        <time>2026-05-26T08:54:10.000Z</time>
      </trkpt>
      <trkpt lat="48.7733" lon="2.53747">
        <ele>71</ele>
        <time>2026-05-26T08:54:35.000Z</time>
      </trkpt>
      <trkpt lat="48.77335" lon="2.5378">
        <ele>73</ele>
        <time>2026-05-26T08:55:05.000Z</time>
      </trkpt>
      <trkpt lat="48.77343" lon="2.53812">
        <ele>77</ele>
        <time>2026-05-26T08:55:37.000Z</time>
      </trkpt>
      <trkpt lat="48.77346" lon="2.53847">
        <ele>80</ele>
        <time>2026-05-26T08:56:13.000Z</time>
      </trkpt>
      <trkpt lat="48.77346" lon="2.53881">
        <ele>83</ele>
        <time>2026-05-26T08:56:44.000Z</time>
      </trkpt>
      <trkpt lat="48.77348" lon="2.53916">
        <ele>86</ele>
        <time>2026-05-26T08:57:09.000Z</time>
      </trkpt>
      <trkpt lat="48.77352" lon="2.53951">
        <ele>89</ele>
        <time>2026-05-26T08:57:35.000Z</time>
      </trkpt>
      <trkpt lat="48.77357" lon="2.53985">
        <ele>92</ele>
        <time>2026-05-26T08:58:01.000Z</time>
      </trkpt>
      <trkpt lat="48.77363" lon="2.54018">
        <ele>94</ele>
        <time>2026-05-26T08:58:24.000Z</time>
      </trkpt>
      <trkpt lat="48.77371" lon="2.5405">
        <ele>96</ele>
        <time>2026-05-26T08:58:52.000Z</time>
      </trkpt>
      <trkpt lat="48.77379" lon="2.54083">
        <ele>96</ele>
        <time>2026-05-26T08:59:27.000Z</time>
      </trkpt>
      <trkpt lat="48.77385" lon="2.54117">
        <ele>98</ele>
        <time>2026-05-26T08:59:47.000Z</time>
      </trkpt>
      <trkpt lat="48.77395" lon="2.54148">
        <ele>98</ele>
        <time>2026-05-26T09:00:08.000Z</time>
      </trkpt>
      <trkpt lat="48.774" lon="2.54183">
        <ele>100</ele>
        <time>2026-05-26T09:00:33.000Z</time>
      </trkpt>
      <trkpt lat="48.77408" lon="2.54216">
        <ele>100</ele>
        <time>2026-05-26T09:00:53.000Z</time>
      </trkpt>
      <trkpt lat="48.77417" lon="2.54248">
        <ele>101</ele>
        <time>2026-05-26T09:01:12.000Z</time>
      </trkpt>
      <trkpt lat="48.77424" lon="2.54282">
        <ele>101</ele>
        <time>2026-05-26T09:01:31.000Z</time>
      </trkpt>
      <trkpt lat="48.77431" lon="2.54316">
        <ele>101</ele>
        <time>2026-05-26T09:01:51.000Z</time>
      </trkpt>
      <trkpt lat="48.7744" lon="2.54348">
        <ele>102</ele>
        <time>2026-05-26T09:02:10.000Z</time>
      </trkpt>
      <trkpt lat="48.77447" lon="2.54381">
        <ele>101</ele>
        <time>2026-05-26T09:02:30.000Z</time>
      </trkpt>
      <trkpt lat="48.77452" lon="2.54415">
        <ele>103</ele>
        <time>2026-05-26T09:02:51.000Z</time>
      </trkpt>
      <trkpt lat="48.77454" lon="2.54449">
        <ele>102</ele>
        <time>2026-05-26T09:03:23.000Z</time>
      </trkpt>
      <trkpt lat="48.77459" lon="2.54484">
        <ele>103</ele>
        <time>2026-05-26T09:03:43.000Z</time>
      </trkpt>
      <trkpt lat="48.77467" lon="2.54518">
        <ele>102</ele>
        <time>2026-05-26T09:04:11.000Z</time>
      </trkpt>
      <trkpt lat="48.77475" lon="2.54551">
        <ele>103</ele>
        <time>2026-05-26T09:04:32.000Z</time>
      </trkpt>
      <trkpt lat="48.77481" lon="2.54584">
        <ele>102</ele>
        <time>2026-05-26T09:04:51.000Z</time>
      </trkpt>
      <trkpt lat="48.77488" lon="2.54618">
        <ele>102</ele>
        <time>2026-05-26T09:05:11.000Z</time>
      </trkpt>
      <trkpt lat="48.77495" lon="2.54653">
        <ele>101</ele>
        <time>2026-05-26T09:05:56.000Z</time>
      </trkpt>
      <trkpt lat="48.77498" lon="2.54686">
        <ele>100</ele>
        <time>2026-05-26T09:06:16.000Z</time>
      </trkpt>
      <trkpt lat="48.77493" lon="2.54721">
        <ele>102</ele>
        <time>2026-05-26T09:06:40.000Z</time>
      </trkpt>
      <trkpt lat="48.77483" lon="2.54752">
        <ele>101</ele>
        <time>2026-05-26T09:07:09.000Z</time>
      </trkpt>
      <trkpt lat="48.77464" lon="2.54771">
        <ele>102</ele>
        <time>2026-05-26T09:07:29.000Z</time>
      </trkpt>
      <trkpt lat="48.77442" lon="2.54781">
        <ele>101</ele>
        <time>2026-05-26T09:07:54.000Z</time>
      </trkpt>
      <trkpt lat="48.7742" lon="2.5479">
        <ele>101</ele>
        <time>2026-05-26T09:08:15.000Z</time>
      </trkpt>
      <trkpt lat="48.77397" lon="2.54795">
        <ele>101</ele>
        <time>2026-05-26T09:08:35.000Z</time>
      </trkpt>
      <trkpt lat="48.77375" lon="2.54802">
        <ele>101</ele>
        <time>2026-05-26T09:08:58.000Z</time>
      </trkpt>
      <trkpt lat="48.77352" lon="2.54798">
        <ele>103</ele>
        <time>2026-05-26T09:09:19.000Z</time>
      </trkpt>
      <trkpt lat="48.77328" lon="2.54795">
        <ele>103</ele>
        <time>2026-05-26T09:09:40.000Z</time>
      </trkpt>
      <trkpt lat="48.77305" lon="2.54791">
        <ele>103</ele>
        <time>2026-05-26T09:10:01.000Z</time>
      </trkpt>
      <trkpt lat="48.77281" lon="2.54791">
        <ele>103</ele>
        <time>2026-05-26T09:10:25.000Z</time>
      </trkpt>
      <trkpt lat="48.77258" lon="2.54792">
        <ele>103</ele>
        <time>2026-05-26T09:10:46.000Z</time>
      </trkpt>
      <trkpt lat="48.77236" lon="2.54786">
        <ele>101</ele>
        <time>2026-05-26T09:11:08.000Z</time>
      </trkpt>
      <trkpt lat="48.77213" lon="2.54783">
        <ele>103</ele>
        <time>2026-05-26T09:11:29.000Z</time>
      </trkpt>
      <trkpt lat="48.7719" lon="2.54779">
        <ele>102</ele>
        <time>2026-05-26T09:11:51.000Z</time>
      </trkpt>
      <trkpt lat="48.77167" lon="2.54772">
        <ele>102</ele>
        <time>2026-05-26T09:12:11.000Z</time>
      </trkpt>
      <trkpt lat="48.77144" lon="2.54771">
        <ele>102</ele>
        <time>2026-05-26T09:12:32.000Z</time>
      </trkpt>
      <trkpt lat="48.77121" lon="2.54775">
        <ele>101</ele>
        <time>2026-05-26T09:12:54.000Z</time>
      </trkpt>
      <trkpt lat="48.77098" lon="2.5477">
        <ele>102</ele>
        <time>2026-05-26T09:13:16.000Z</time>
      </trkpt>
      <trkpt lat="48.77075" lon="2.54766">
        <ele>101</ele>
        <time>2026-05-26T09:13:38.000Z</time>
      </trkpt>
      <trkpt lat="48.77052" lon="2.54763">
        <ele>101</ele>
        <time>2026-05-26T09:14:00.000Z</time>
      </trkpt>
      <trkpt lat="48.77029" lon="2.54763">
        <ele>101</ele>
        <time>2026-05-26T09:14:24.000Z</time>
      </trkpt>
      <trkpt lat="48.77006" lon="2.54759">
        <ele>100</ele>
        <time>2026-05-26T09:14:45.000Z</time>
      </trkpt>
      <trkpt lat="48.76983" lon="2.54764">
        <ele>101</ele>
        <time>2026-05-26T09:15:04.000Z</time>
      </trkpt>
      <trkpt lat="48.76961" lon="2.54762">
        <ele>101</ele>
        <time>2026-05-26T09:15:33.000Z</time>
      </trkpt>
      <trkpt lat="48.76938" lon="2.54767">
        <ele>100</ele>
        <time>2026-05-26T09:15:53.000Z</time>
      </trkpt>
      <trkpt lat="48.76915" lon="2.54766">
        <ele>100</ele>
        <time>2026-05-26T09:16:17.000Z</time>
      </trkpt>
      <trkpt lat="48.76892" lon="2.54762">
        <ele>100</ele>
        <time>2026-05-26T09:16:37.000Z</time>
      </trkpt>
      <trkpt lat="48.76869" lon="2.54766">
        <ele>101</ele>
        <time>2026-05-26T09:16:55.000Z</time>
      </trkpt>
      <trkpt lat="48.76847" lon="2.54756">
        <ele>101</ele>
        <time>2026-05-26T09:17:15.000Z</time>
      </trkpt>
      <trkpt lat="48.76825" lon="2.54761">
        <ele>101</ele>
        <time>2026-05-26T09:20:17.000Z</time>
      </trkpt>
      <trkpt lat="48.76803" lon="2.54772">
        <ele>101</ele>
        <time>2026-05-26T09:20:38.000Z</time>
      </trkpt>
      <trkpt lat="48.76781" lon="2.54781">
        <ele>101</ele>
        <time>2026-05-26T09:20:58.000Z</time>
      </trkpt>
      <trkpt lat="48.76759" lon="2.54793">
        <ele>101</ele>
        <time>2026-05-26T09:21:22.000Z</time>
      </trkpt>
      <trkpt lat="48.76739" lon="2.5481">
        <ele>100</ele>
        <time>2026-05-26T09:21:44.000Z</time>
      </trkpt>
      <trkpt lat="48.7672" lon="2.54829">
        <ele>101</ele>
        <time>2026-05-26T09:22:03.000Z</time>
      </trkpt>
      <trkpt lat="48.76701" lon="2.54848">
        <ele>101</ele>
        <time>2026-05-26T09:22:23.000Z</time>
      </trkpt>
      <trkpt lat="48.76681" lon="2.54865">
        <ele>101</ele>
        <time>2026-05-26T09:22:44.000Z</time>
      </trkpt>
      <trkpt lat="48.76662" lon="2.54885">
        <ele>102</ele>
        <time>2026-05-26T09:23:03.000Z</time>
      </trkpt>
      <trkpt lat="48.76643" lon="2.54906">
        <ele>101</ele>
        <time>2026-05-26T09:23:23.000Z</time>
      </trkpt>
      <trkpt lat="48.76626" lon="2.54931">
        <ele>102</ele>
        <time>2026-05-26T09:23:45.000Z</time>
      </trkpt>
      <trkpt lat="48.76606" lon="2.54947">
        <ele>102</ele>
        <time>2026-05-26T09:24:05.000Z</time>
      </trkpt>
      <trkpt lat="48.76585" lon="2.54965">
        <ele>101</ele>
        <time>2026-05-26T09:24:25.000Z</time>
      </trkpt>
      <trkpt lat="48.76567" lon="2.54984">
        <ele>101</ele>
        <time>2026-05-26T09:24:43.000Z</time>
      </trkpt>
      <trkpt lat="48.76561" lon="2.55018">
        <ele>102</ele>
        <time>2026-05-26T09:25:12.000Z</time>
      </trkpt>
      <trkpt lat="48.76556" lon="2.55052">
        <ele>101</ele>
        <time>2026-05-26T09:25:36.000Z</time>
      </trkpt>
      <trkpt lat="48.76545" lon="2.55084">
        <ele>102</ele>
        <time>2026-05-26T09:25:58.000Z</time>
      </trkpt>
      <trkpt lat="48.7654" lon="2.55117">
        <ele>102</ele>
        <time>2026-05-26T09:26:18.000Z</time>
      </trkpt>
      <trkpt lat="48.76531" lon="2.55149">
        <ele>102</ele>
        <time>2026-05-26T09:26:40.000Z</time>
      </trkpt>
      <trkpt lat="48.76525" lon="2.55182">
        <ele>103</ele>
        <time>2026-05-26T09:27:00.000Z</time>
      </trkpt>
      <trkpt lat="48.76519" lon="2.55217">
        <ele>103</ele>
        <time>2026-05-26T09:27:20.000Z</time>
      </trkpt>
      <trkpt lat="48.76512" lon="2.55249">
        <ele>101</ele>
        <time>2026-05-26T09:27:56.000Z</time>
      </trkpt>
      <trkpt lat="48.76508" lon="2.55283">
        <ele>101</ele>
        <time>2026-05-26T09:28:17.000Z</time>
      </trkpt>
      <trkpt lat="48.76498" lon="2.55316">
        <ele>102</ele>
        <time>2026-05-26T09:28:35.000Z</time>
      </trkpt>
      <trkpt lat="48.7649" lon="2.55348">
        <ele>101</ele>
        <time>2026-05-26T09:28:57.000Z</time>
      </trkpt>
      <trkpt lat="48.76487" lon="2.55382">
        <ele>101</ele>
        <time>2026-05-26T09:29:15.000Z</time>
      </trkpt>
      <trkpt lat="48.7648" lon="2.55415">
        <ele>102</ele>
        <time>2026-05-26T09:29:37.000Z</time>
      </trkpt>
      <trkpt lat="48.76475" lon="2.55451">
        <ele>102</ele>
        <time>2026-05-26T09:29:57.000Z</time>
      </trkpt>
      <trkpt lat="48.76469" lon="2.55486">
        <ele>103</ele>
        <time>2026-05-26T09:30:16.000Z</time>
      </trkpt>
      <trkpt lat="48.76464" lon="2.55522">
        <ele>102</ele>
        <time>2026-05-26T09:30:37.000Z</time>
      </trkpt>
      <trkpt lat="48.76455" lon="2.55553">
        <ele>103</ele>
        <time>2026-05-26T09:30:58.000Z</time>
      </trkpt>
      <trkpt lat="48.7645" lon="2.55589">
        <ele>102</ele>
        <time>2026-05-26T09:31:17.000Z</time>
      </trkpt>
      <trkpt lat="48.76439" lon="2.55619">
        <ele>102</ele>
        <time>2026-05-26T09:31:39.000Z</time>
      </trkpt>
      <trkpt lat="48.76431" lon="2.55652">
        <ele>103</ele>
        <time>2026-05-26T09:31:58.000Z</time>
      </trkpt>
      <trkpt lat="48.76411" lon="2.55672">
        <ele>102</ele>
        <time>2026-05-26T09:32:41.000Z</time>
      </trkpt>
      <trkpt lat="48.76412" lon="2.55707">
        <ele>102</ele>
        <time>2026-05-26T09:33:03.000Z</time>
      </trkpt>
      <trkpt lat="48.7642" lon="2.55739">
        <ele>102</ele>
        <time>2026-05-26T09:33:25.000Z</time>
      </trkpt>
      <trkpt lat="48.7644" lon="2.55754">
        <ele>102</ele>
        <time>2026-05-26T09:33:46.000Z</time>
      </trkpt>
      <trkpt lat="48.76451" lon="2.55785">
        <ele>103</ele>
        <time>2026-05-26T09:34:37.000Z</time>
      </trkpt>
      <trkpt lat="48.76451" lon="2.55819">
        <ele>102</ele>
        <time>2026-05-26T09:34:57.000Z</time>
      </trkpt>
      <trkpt lat="48.76437" lon="2.55849">
        <ele>103</ele>
        <time>2026-05-26T09:35:19.000Z</time>
      </trkpt>
      <trkpt lat="48.76428" lon="2.5588">
        <ele>102</ele>
        <time>2026-05-26T09:35:40.000Z</time>
      </trkpt>
      <trkpt lat="48.7642" lon="2.55913">
        <ele>102</ele>
        <time>2026-05-26T09:36:01.000Z</time>
      </trkpt>
      <trkpt lat="48.7641" lon="2.55945">
        <ele>102</ele>
        <time>2026-05-26T09:36:21.000Z</time>
      </trkpt>
      <trkpt lat="48.764" lon="2.55976">
        <ele>102</ele>
        <time>2026-05-26T09:36:42.000Z</time>
      </trkpt>
      <trkpt lat="48.76392" lon="2.56008">
        <ele>102</ele>
        <time>2026-05-26T09:37:04.000Z</time>
      </trkpt>
      <trkpt lat="48.76383" lon="2.56041">
        <ele>102</ele>
        <time>2026-05-26T09:37:24.000Z</time>
      </trkpt>
      <trkpt lat="48.76375" lon="2.56073">
        <ele>102</ele>
        <time>2026-05-26T09:37:45.000Z</time>
      </trkpt>
      <trkpt lat="48.76365" lon="2.56104">
        <ele>102</ele>
        <time>2026-05-26T09:38:05.000Z</time>
      </trkpt>
      <trkpt lat="48.76357" lon="2.56137">
        <ele>102</ele>
        <time>2026-05-26T09:38:25.000Z</time>
      </trkpt>
      <trkpt lat="48.76348" lon="2.56169">
        <ele>102</ele>
        <time>2026-05-26T09:38:46.000Z</time>
      </trkpt>
      <trkpt lat="48.76337" lon="2.56201">
        <ele>102</ele>
        <time>2026-05-26T09:39:06.000Z</time>
      </trkpt>
      <trkpt lat="48.76324" lon="2.56232">
        <ele>102</ele>
        <time>2026-05-26T09:39:31.000Z</time>
      </trkpt>
      <trkpt lat="48.76318" lon="2.56265">
        <ele>103</ele>
        <time>2026-05-26T09:39:54.000Z</time>
      </trkpt>
      <trkpt lat="48.76312" lon="2.56299">
        <ele>102</ele>
        <time>2026-05-26T09:40:23.000Z</time>
      </trkpt>
      <trkpt lat="48.76304" lon="2.56333">
        <ele>102</ele>
        <time>2026-05-26T09:40:46.000Z</time>
      </trkpt>
      <trkpt lat="48.76295" lon="2.56366">
        <ele>102</ele>
        <time>2026-05-26T09:41:06.000Z</time>
      </trkpt>
      <trkpt lat="48.76287" lon="2.56398">
        <ele>102</ele>
        <time>2026-05-26T09:41:28.000Z</time>
      </trkpt>
      <trkpt lat="48.76276" lon="2.56428">
        <ele>102</ele>
        <time>2026-05-26T09:41:46.000Z</time>
      </trkpt>
      <trkpt lat="48.76258" lon="2.56451">
        <ele>102</ele>
        <time>2026-05-26T09:42:07.000Z</time>
      </trkpt>
      <trkpt lat="48.76246" lon="2.56481">
        <ele>103</ele>
        <time>2026-05-26T09:42:31.000Z</time>
      </trkpt>
      <trkpt lat="48.76233" lon="2.56509">
        <ele>102</ele>
        <time>2026-05-26T09:42:51.000Z</time>
      </trkpt>
      <trkpt lat="48.76216" lon="2.56535">
        <ele>102</ele>
        <time>2026-05-26T09:43:12.000Z</time>
      </trkpt>
      <trkpt lat="48.76202" lon="2.56564">
        <ele>102</ele>
        <time>2026-05-26T09:43:31.000Z</time>
      </trkpt>
      <trkpt lat="48.76181" lon="2.56579">
        <ele>102</ele>
        <time>2026-05-26T09:43:51.000Z</time>
      </trkpt>
      <trkpt lat="48.76161" lon="2.56599">
        <ele>103</ele>
        <time>2026-05-26T09:44:15.000Z</time>
      </trkpt>
      <trkpt lat="48.76139" lon="2.56612">
        <ele>102</ele>
        <time>2026-05-26T09:44:36.000Z</time>
      </trkpt>
      <trkpt lat="48.76117" lon="2.56618">
        <ele>102</ele>
        <time>2026-05-26T09:44:55.000Z</time>
      </trkpt>
      <trkpt lat="48.76094" lon="2.56621">
        <ele>102</ele>
        <time>2026-05-26T09:45:15.000Z</time>
      </trkpt>
      <trkpt lat="48.76074" lon="2.56638">
        <ele>102</ele>
        <time>2026-05-26T09:45:36.000Z</time>
      </trkpt>
      <trkpt lat="48.76059" lon="2.56612">
        <ele>102</ele>
        <time>2026-05-26T09:46:00.000Z</time>
      </trkpt>
      <trkpt lat="48.7605" lon="2.56579">
        <ele>101</ele>
        <time>2026-05-26T09:46:26.000Z</time>
      </trkpt>
      <trkpt lat="48.76043" lon="2.56546">
        <ele>102</ele>
        <time>2026-05-26T09:46:49.000Z</time>
      </trkpt>
      <trkpt lat="48.76037" lon="2.56513">
        <ele>102</ele>
        <time>2026-05-26T09:47:13.000Z</time>
      </trkpt>
      <trkpt lat="48.76031" lon="2.5648">
        <ele>102</ele>
        <time>2026-05-26T09:47:34.000Z</time>
      </trkpt>
      <trkpt lat="48.76026" lon="2.56446">
        <ele>102</ele>
        <time>2026-05-26T09:47:53.000Z</time>
      </trkpt>
      <trkpt lat="48.7602" lon="2.56413">
        <ele>102</ele>
        <time>2026-05-26T09:48:13.000Z</time>
      </trkpt>
      <trkpt lat="48.76006" lon="2.56386">
        <ele>102</ele>
        <time>2026-05-26T09:48:38.000Z</time>
      </trkpt>
      <trkpt lat="48.75983" lon="2.56395">
        <ele>102</ele>
        <time>2026-05-26T09:49:01.000Z</time>
      </trkpt>
      <trkpt lat="48.75968" lon="2.56369">
        <ele>102</ele>
        <time>2026-05-26T09:49:36.000Z</time>
      </trkpt>
      <trkpt lat="48.75945" lon="2.5637">
        <ele>102</ele>
        <time>2026-05-26T09:50:05.000Z</time>
      </trkpt>
      <trkpt lat="48.75921" lon="2.56366">
        <ele>102</ele>
        <time>2026-05-26T09:51:13.000Z</time>
      </trkpt>
      <trkpt lat="48.75898" lon="2.56371">
        <ele>102</ele>
        <time>2026-05-26T09:51:39.000Z</time>
      </trkpt>
      <trkpt lat="48.75875" lon="2.56374">
        <ele>102</ele>
        <time>2026-05-26T09:52:03.000Z</time>
      </trkpt>
      <trkpt lat="48.75852" lon="2.56373">
        <ele>102</ele>
        <time>2026-05-26T09:52:25.000Z</time>
      </trkpt>
      <trkpt lat="48.75827" lon="2.5638">
        <ele>102</ele>
        <time>2026-05-26T09:52:58.000Z</time>
      </trkpt>
      <trkpt lat="48.75805" lon="2.56377">
        <ele>102</ele>
        <time>2026-05-26T09:53:22.000Z</time>
      </trkpt>
      <trkpt lat="48.75781" lon="2.56381">
        <ele>102</ele>
        <time>2026-05-26T09:53:46.000Z</time>
      </trkpt>
      <trkpt lat="48.75759" lon="2.56382">
        <ele>102</ele>
        <time>2026-05-26T09:54:08.000Z</time>
      </trkpt>
      <trkpt lat="48.75737" lon="2.56393">
        <ele>101</ele>
        <time>2026-05-26T09:54:34.000Z</time>
      </trkpt>
      <trkpt lat="48.75718" lon="2.56414">
        <ele>101</ele>
        <time>2026-05-26T09:54:59.000Z</time>
      </trkpt>
      <trkpt lat="48.75698" lon="2.56395">
        <ele>102</ele>
        <time>2026-05-26T09:55:19.000Z</time>
      </trkpt>
      <trkpt lat="48.75678" lon="2.56376">
        <ele>101</ele>
        <time>2026-05-26T09:55:45.000Z</time>
      </trkpt>
      <trkpt lat="48.75658" lon="2.56356">
        <ele>101</ele>
        <time>2026-05-26T09:56:04.000Z</time>
      </trkpt>
      <trkpt lat="48.75639" lon="2.56339">
        <ele>101</ele>
        <time>2026-05-26T09:56:24.000Z</time>
      </trkpt>
      <trkpt lat="48.75621" lon="2.56319">
        <ele>101</ele>
        <time>2026-05-26T09:56:41.000Z</time>
      </trkpt>
      <trkpt lat="48.75602" lon="2.56297">
        <ele>101</ele>
        <time>2026-05-26T09:57:10.000Z</time>
      </trkpt>
      <trkpt lat="48.7558" lon="2.56281">
        <ele>101</ele>
        <time>2026-05-26T09:57:35.000Z</time>
      </trkpt>
      <trkpt lat="48.7556" lon="2.56263">
        <ele>101</ele>
        <time>2026-05-26T09:57:58.000Z</time>
      </trkpt>
      <trkpt lat="48.7554" lon="2.56244">
        <ele>101</ele>
        <time>2026-05-26T09:58:19.000Z</time>
      </trkpt>
      <trkpt lat="48.7552" lon="2.56228">
        <ele>101</ele>
        <time>2026-05-26T09:58:39.000Z</time>
      </trkpt>
      <trkpt lat="48.75502" lon="2.56207">
        <ele>101</ele>
        <time>2026-05-26T09:59:04.000Z</time>
      </trkpt>
      <trkpt lat="48.75483" lon="2.56191">
        <ele>102</ele>
        <time>2026-05-26T09:59:27.000Z</time>
      </trkpt>
      <trkpt lat="48.75464" lon="2.5617">
        <ele>101</ele>
        <time>2026-05-26T10:00:21.000Z</time>
      </trkpt>
      <trkpt lat="48.75445" lon="2.56149">
        <ele>100</ele>
        <time>2026-05-26T10:00:51.000Z</time>
      </trkpt>
      <trkpt lat="48.75425" lon="2.56132">
        <ele>100</ele>
        <time>2026-05-26T10:01:12.000Z</time>
      </trkpt>
      <trkpt lat="48.75406" lon="2.56113">
        <ele>100</ele>
        <time>2026-05-26T10:01:34.000Z</time>
      </trkpt>
      <trkpt lat="48.75391" lon="2.56088">
        <ele>100</ele>
        <time>2026-05-26T10:04:48.000Z</time>
      </trkpt>
      <trkpt lat="48.75387" lon="2.56053">
        <ele>100</ele>
        <time>2026-05-26T10:06:17.000Z</time>
      </trkpt>
      <trkpt lat="48.75387" lon="2.56018">
        <ele>101</ele>
        <time>2026-05-26T10:06:36.000Z</time>
      </trkpt>
      <trkpt lat="48.75386" lon="2.55984">
        <ele>101</ele>
        <time>2026-05-26T10:06:55.000Z</time>
      </trkpt>
      <trkpt lat="48.75387" lon="2.5595">
        <ele>100</ele>
        <time>2026-05-26T10:07:14.000Z</time>
      </trkpt>
      <trkpt lat="48.75383" lon="2.55916">
        <ele>101</ele>
        <time>2026-05-26T10:07:33.000Z</time>
      </trkpt>
      <trkpt lat="48.7538" lon="2.55882">
        <ele>100</ele>
        <time>2026-05-26T10:07:50.000Z</time>
      </trkpt>
      <trkpt lat="48.75381" lon="2.55846">
        <ele>100</ele>
        <time>2026-05-26T10:08:10.000Z</time>
      </trkpt>
      <trkpt lat="48.75379" lon="2.5581">
        <ele>101</ele>
        <time>2026-05-26T10:08:27.000Z</time>
      </trkpt>
      <trkpt lat="48.75378" lon="2.55776">
        <ele>102</ele>
        <time>2026-05-26T10:08:48.000Z</time>
      </trkpt>
      <trkpt lat="48.75375" lon="2.55741">
        <ele>101</ele>
        <time>2026-05-26T10:09:06.000Z</time>
      </trkpt>
      <trkpt lat="48.75374" lon="2.55706">
        <ele>102</ele>
        <time>2026-05-26T10:09:33.000Z</time>
      </trkpt>
      <trkpt lat="48.75372" lon="2.55671">
        <ele>101</ele>
        <time>2026-05-26T10:09:53.000Z</time>
      </trkpt>
      <trkpt lat="48.75373" lon="2.55636">
        <ele>101</ele>
        <time>2026-05-26T10:10:10.000Z</time>
      </trkpt>
      <trkpt lat="48.75373" lon="2.55602">
        <ele>101</ele>
        <time>2026-05-26T10:10:30.000Z</time>
      </trkpt>
      <trkpt lat="48.75369" lon="2.55568">
        <ele>101</ele>
        <time>2026-05-26T10:10:47.000Z</time>
      </trkpt>
      <trkpt lat="48.75365" lon="2.55533">
        <ele>101</ele>
        <time>2026-05-26T10:11:04.000Z</time>
      </trkpt>
      <trkpt lat="48.75365" lon="2.55498">
        <ele>101</ele>
        <time>2026-05-26T10:11:22.000Z</time>
      </trkpt>
      <trkpt lat="48.75364" lon="2.55463">
        <ele>100</ele>
        <time>2026-05-26T10:11:41.000Z</time>
      </trkpt>
      <trkpt lat="48.75361" lon="2.55428">
        <ele>102</ele>
        <time>2026-05-26T10:12:00.000Z</time>
      </trkpt>
      <trkpt lat="48.75362" lon="2.55393">
        <ele>101</ele>
        <time>2026-05-26T10:12:29.000Z</time>
      </trkpt>
      <trkpt lat="48.75364" lon="2.55359">
        <ele>101</ele>
        <time>2026-05-26T10:12:53.000Z</time>
      </trkpt>
      <trkpt lat="48.75364" lon="2.55324">
        <ele>100</ele>
        <time>2026-05-26T10:13:12.000Z</time>
      </trkpt>
      <trkpt lat="48.75361" lon="2.55289">
        <ele>100</ele>
        <time>2026-05-26T10:13:32.000Z</time>
      </trkpt>
      <trkpt lat="48.7536" lon="2.55254">
        <ele>99</ele>
        <time>2026-05-26T10:13:53.000Z</time>
      </trkpt>
      <trkpt lat="48.75357" lon="2.5522">
        <ele>100</ele>
        <time>2026-05-26T10:14:09.000Z</time>
      </trkpt>
      <trkpt lat="48.75354" lon="2.55185">
        <ele>100</ele>
        <time>2026-05-26T10:14:28.000Z</time>
      </trkpt>
      <trkpt lat="48.75353" lon="2.55151">
        <ele>99</ele>
        <time>2026-05-26T10:14:47.000Z</time>
      </trkpt>
      <trkpt lat="48.75353" lon="2.55116">
        <ele>100</ele>
        <time>2026-05-26T10:15:07.000Z</time>
      </trkpt>
      <trkpt lat="48.75352" lon="2.55081">
        <ele>100</ele>
        <time>2026-05-26T10:15:26.000Z</time>
      </trkpt>
      <trkpt lat="48.7535" lon="2.55047">
        <ele>100</ele>
        <time>2026-05-26T10:15:46.000Z</time>
      </trkpt>
      <trkpt lat="48.7535" lon="2.55012">
        <ele>100</ele>
        <time>2026-05-26T10:16:04.000Z</time>
      </trkpt>
      <trkpt lat="48.75348" lon="2.54978">
        <ele>100</ele>
        <time>2026-05-26T10:16:24.000Z</time>
      </trkpt>
      <trkpt lat="48.75345" lon="2.54944">
        <ele>99</ele>
        <time>2026-05-26T10:16:42.000Z</time>
      </trkpt>
      <trkpt lat="48.75342" lon="2.54908">
        <ele>99</ele>
        <time>2026-05-26T10:17:03.000Z</time>
      </trkpt>
      <trkpt lat="48.75341" lon="2.54871">
        <ele>99</ele>
        <time>2026-05-26T10:17:22.000Z</time>
      </trkpt>
      <trkpt lat="48.75339" lon="2.54836">
        <ele>99</ele>
        <time>2026-05-26T10:17:40.000Z</time>
      </trkpt>
      <trkpt lat="48.75337" lon="2.54802">
        <ele>98</ele>
        <time>2026-05-26T10:17:58.000Z</time>
      </trkpt>
      <trkpt lat="48.75327" lon="2.5477">
        <ele>99</ele>
        <time>2026-05-26T10:18:19.000Z</time>
      </trkpt>
      <trkpt lat="48.75306" lon="2.54753">
        <ele>98</ele>
        <time>2026-05-26T10:18:40.000Z</time>
      </trkpt>
      <trkpt lat="48.75285" lon="2.54736">
        <ele>99</ele>
        <time>2026-05-26T10:19:02.000Z</time>
      </trkpt>
      <trkpt lat="48.75263" lon="2.54722">
        <ele>99</ele>
        <time>2026-05-26T10:19:20.000Z</time>
      </trkpt>
      <trkpt lat="48.75242" lon="2.54707">
        <ele>99</ele>
        <time>2026-05-26T10:19:40.000Z</time>
      </trkpt>
      <trkpt lat="48.75221" lon="2.54689">
        <ele>99</ele>
        <time>2026-05-26T10:20:00.000Z</time>
      </trkpt>
      <trkpt lat="48.752" lon="2.54674">
        <ele>99</ele>
        <time>2026-05-26T10:20:20.000Z</time>
      </trkpt>
      <trkpt lat="48.7518" lon="2.54658">
        <ele>99</ele>
        <time>2026-05-26T10:20:39.000Z</time>
      </trkpt>
      <trkpt lat="48.75159" lon="2.54641">
        <ele>99</ele>
        <time>2026-05-26T10:20:58.000Z</time>
      </trkpt>
      <trkpt lat="48.75138" lon="2.54629">
        <ele>99</ele>
        <time>2026-05-26T10:21:17.000Z</time>
      </trkpt>
      <trkpt lat="48.75118" lon="2.54611">
        <ele>99</ele>
        <time>2026-05-26T10:21:38.000Z</time>
      </trkpt>
      <trkpt lat="48.75099" lon="2.54592">
        <ele>99</ele>
        <time>2026-05-26T10:22:04.000Z</time>
      </trkpt>
      <trkpt lat="48.75078" lon="2.54579">
        <ele>99</ele>
        <time>2026-05-26T10:23:52.000Z</time>
      </trkpt>
      <trkpt lat="48.75057" lon="2.54564">
        <ele>99</ele>
        <time>2026-05-26T10:24:20.000Z</time>
      </trkpt>
      <trkpt lat="48.75036" lon="2.54547">
        <ele>100</ele>
        <time>2026-05-26T10:24:37.000Z</time>
      </trkpt>
      <trkpt lat="48.75015" lon="2.54533">
        <ele>99</ele>
        <time>2026-05-26T10:24:57.000Z</time>
      </trkpt>
      <trkpt lat="48.74995" lon="2.54516">
        <ele>99</ele>
        <time>2026-05-26T10:25:22.000Z</time>
      </trkpt>
      <trkpt lat="48.74974" lon="2.54502">
        <ele>98</ele>
        <time>2026-05-26T10:25:38.000Z</time>
      </trkpt>
      <trkpt lat="48.74953" lon="2.54488">
        <ele>99</ele>
        <time>2026-05-26T10:25:58.000Z</time>
      </trkpt>
      <trkpt lat="48.74933" lon="2.54472">
        <ele>99</ele>
        <time>2026-05-26T10:26:17.000Z</time>
      </trkpt>
      <trkpt lat="48.74913" lon="2.54454">
        <ele>98</ele>
        <time>2026-05-26T10:26:39.000Z</time>
      </trkpt>
      <trkpt lat="48.74892" lon="2.54438">
        <ele>99</ele>
        <time>2026-05-26T10:26:58.000Z</time>
      </trkpt>
      <trkpt lat="48.74898" lon="2.54403">
        <ele>99</ele>
        <time>2026-05-26T10:27:18.000Z</time>
      </trkpt>
      <trkpt lat="48.74905" lon="2.5437">
        <ele>100</ele>
        <time>2026-05-26T10:27:41.000Z</time>
      </trkpt>
      <trkpt lat="48.7491" lon="2.54336">
        <ele>100</ele>
        <time>2026-05-26T10:27:58.000Z</time>
      </trkpt>
      <trkpt lat="48.74914" lon="2.54302">
        <ele>100</ele>
        <time>2026-05-26T10:28:16.000Z</time>
      </trkpt>
      <trkpt lat="48.74926" lon="2.54273">
        <ele>100</ele>
        <time>2026-05-26T10:28:38.000Z</time>
      </trkpt>
      <trkpt lat="48.74931" lon="2.54239">
        <ele>99</ele>
        <time>2026-05-26T10:28:58.000Z</time>
      </trkpt>
      <trkpt lat="48.74936" lon="2.54204">
        <ele>99</ele>
        <time>2026-05-26T10:29:18.000Z</time>
      </trkpt>
      <trkpt lat="48.74943" lon="2.54172">
        <ele>99</ele>
        <time>2026-05-26T10:29:40.000Z</time>
      </trkpt>
      <trkpt lat="48.74951" lon="2.54139">
        <ele>100</ele>
        <time>2026-05-26T10:30:00.000Z</time>
      </trkpt>
      <trkpt lat="48.74957" lon="2.54105">
        <ele>100</ele>
        <time>2026-05-26T10:30:24.000Z</time>
      </trkpt>
      <trkpt lat="48.74965" lon="2.54072">
        <ele>99</ele>
        <time>2026-05-26T10:30:44.000Z</time>
      </trkpt>
      <trkpt lat="48.74971" lon="2.54037">
        <ele>100</ele>
        <time>2026-05-26T10:31:03.000Z</time>
      </trkpt>
      <trkpt lat="48.74952" lon="2.54016">
        <ele>99</ele>
        <time>2026-05-26T10:31:28.000Z</time>
      </trkpt>
      <trkpt lat="48.74933" lon="2.53997">
        <ele>99</ele>
        <time>2026-05-26T10:31:58.000Z</time>
      </trkpt>
      <trkpt lat="48.74912" lon="2.53979">
        <ele>99</ele>
        <time>2026-05-26T10:32:19.000Z</time>
      </trkpt>
      <trkpt lat="48.7491" lon="2.53943">
        <ele>99</ele>
        <time>2026-05-26T10:32:37.000Z</time>
      </trkpt>
      <trkpt lat="48.74911" lon="2.53908">
        <ele>100</ele>
        <time>2026-05-26T10:32:55.000Z</time>
      </trkpt>
      <trkpt lat="48.74895" lon="2.53884">
        <ele>99</ele>
        <time>2026-05-26T10:33:13.000Z</time>
      </trkpt>
    </trkseg>
  </trk>
</gpx>